Carlisle, KY (40311)

22:15 EDT le 22 septembre 2014 (GMT -0400)
Ridge Road Jet Center | Change Station
CLOSE
Current Station
Stations météorologiques personnelles
Location: Owingsville, KY
Altitude: 899 ft
Stations météo à proximité

Alt. 899 ft 38.14 °N, 83.78 °W | Updated 10 minutes ago

Ciel dégagé
Ciel dégagé
54.9 ° F
Paraît 54.9 ° F
N
4.2
Vent Variable Vent de Nord

Aujourd'hui
Haut(e) -- | Bas -- ° F
--% Risque de précip.
Hier
Haut(e) -- | Bas -- ° F
Precip. -- pouce
7:23 AM 7:33 PM
Lune descendante, 1% visible
Pression 30.26 pouce
Visibilité 10.0 Miles terrestres
Nuages Ciel dégagé
Point de rosée 48 ° F
Humidité 77%
Précipitations 0.00 pouce
Profondeur de la couche neigeuse Non disponible.
UV 0 sur 12
Pollen 4.80 sur 12
Qualité de l'air Non disponible.
Flu Activity Non disponible.
METAR KIOB 230155Z AUTO 00000KT 10SM CLR 12/08 A3026 RMK AO2

More Conditions Fewer Conditions

Pression 30.26 pouce
Visibilité 10.0 Miles terrestres
Nuages Ciel dégagé
Point de rosée 48 ° F
Humidité 77%
Précipitations 0.00 pouce
Profondeur de la couche neigeuse Non disponible.
UV 0 sur 12
Pollen 4.80 sur 12
Qualité de l'air Non disponible.
Flu Activity Non disponible.
METAR KIOB 230155Z AUTO 00000KT 10SM CLR 12/08 A3026 RMK AO2

More Conditions Fewer Conditions

10-Day Weather Forecast

Almanac

Astronomie

Sep. 22, 2014 Lever Coucher
Temps réel 07:23 EDT 19:33 EDT
Crépuscule civil 06:57 EDT 19:59 EDT
Crépuscule nautique 06:26 EDT 20:30 EDT
Crépuscule astronomique 05:55 EDT 21:01 EDT
Lune 05:52 EDT (9/22) 18:39 EDT (9/22)
Durée de lumière visible 13h 02m
Longueur du jour
12h 09m
Tomorrow will be 2m 28s shorter.
Lune descendante, 1% of the Moon is Illuminated
Aujourd'hui
Lune descendante
Sep 24
Nouveau
Oct 1
Premier quartier
Oct 8
Pleine lune
Oct 15
Dernier quartier

Extrêmes aujourd'hui

State Highs State Lows

Community

WunderPhotos

Upload Photos

1,755,587 Photos téléchargées !

Nearby

Épaisseur de neige

Station Depth Altitude
Pas de nouvelles chutes de neige

Activité sismique

Ville Distance Mag. Time & Date
No recent earthquake activity has been reported nearby.
Minimum magnitude displayed is 2.5.

Températures des eaux côtières

Lieu Température
Aucun rapport de station

Stations météo à proximité